Time;durP1;ratioP1;P1;durP2;ratioP2;P2;SDS_P1;SDS_P2;PMS_P1;PMS_P2;Temp;Humidity;BMP_temperature;BMP_pressure;BME280_temperature;BME280_humidity;BME280_pressure;Samples;Min_cycle;Max_cycle;Signal;HPM_P1;HPM_P2
2023/06/13 00:00:03;;;;;;;6.20;5.05;;;;;;;10.73;100.00;92655.03;2085255;28;20029;-81
2023/06/13 00:01:13;;;;;;;6.30;4.78;;;;;;;10.73;100.00;92654.28;2098524;28;20021;-83
2023/06/13 00:02:23;;;;;;;6.10;4.55;;;;;;;10.77;100.00;92654.94;2101815;28;21009;-82
2023/06/13 00:03:29;;;;;;;;;;;;;;;10.73;100.00;92649.69;2093633;28;20108;-81
2023/06/13 00:04:35;;;;;;;5.63;5.03;;;;;;;10.70;100.00;92650.53;2094765;28;20357;-82
2023/06/13 00:05:46;;;;;;;5.30;4.80;;;;;;;10.65;100.00;92661.00;2093721;28;20111;-84
2023/06/13 00:07:00;;;;;;;5.70;5.10;;;;;;;10.73;100.00;92655.03;2084519;28;20017;-84
2023/06/13 00:08:07;;;;;;;5.88;5.07;;;;;;;10.67;100.00;92650.63;2092816;28;20093;-81
2023/06/13 00:09:19;;;;;;;5.40;4.90;;;;;;;10.67;100.00;92646.06;2095651;28;20028;-81
2023/06/13 00:10:25;;;;;;;6.15;5.47;;;;;;;10.65;100.00;92653.75;2091948;28;20060;-82
2023/06/13 00:11:32;;;;;;;5.65;5.10;;;;;;;10.63;100.00;92653.44;2096705;28;20659;-82
2023/06/13 00:12:44;;;;;;;5.50;4.97;;;;;;;10.67;100.00;92645.28;2115485;28;20027;-84
2023/06/13 00:13:51;;;;;;;;;;;;;;;10.74;100.00;92647.75;2105106;28;20079;-82
2023/06/13 00:15:01;;;;;;;5.70;4.40;;;;;;;10.72;100.00;92645.53;2084326;28;20643;-83
2023/06/13 00:16:05;;;;;;;5.07;4.47;;;;;;;10.71;100.00;92640.59;2091714;28;20021;-82
2023/06/13 00:17:12;;;;;;;5.13;4.72;;;;;;;10.63;100.00;92645.41;2083469;28;20030;-82
2023/06/13 00:18:22;;;;;;;7.18;5.13;;;;;;;10.71;100.00;92641.38;2096904;28;20016;-82
2023/06/13 00:19:32;;;;;;;5.60;5.07;;;;;;;10.61;100.00;92642.41;2089390;28;20051;-84
2023/06/13 00:20:41;;;;;;;8.05;5.65;;;;;;;10.54;100.00;92638.03;2078991;28;20037;-84
2023/06/13 00:21:50;;;;;;;7.30;4.80;;;;;;;10.64;100.00;92641.56;2100851;28;20123;-82
2023/06/13 00:22:59;;;;;;;6.47;5.32;;;;;;;10.61;100.00;92642.41;2107145;28;20036;-82
2023/06/13 00:24:03;;;;;;;7.15;4.80;;;;;;;10.60;100.00;92635.56;2092362;28;20020;-82
2023/06/13 00:25:10;;;;;;;9.73;5.13;;;;;;;10.56;100.00;92651.72;2082909;28;20037;-82
2023/06/13 00:26:18;;;;;;;5.18;4.57;;;;;;;10.61;100.00;92636.31;2082228;28;20025;-82
2023/06/13 00:27:25;;;;;;;9.88;5.35;;;;;;;10.62;100.00;92643.16;2097701;28;20028;-84
2023/06/13 00:28:35;;;;;;;5.38;4.97;;;;;;;10.58;100.00;92633.34;2098848;28;20021;-83
2023/06/13 00:29:42;;;;;;;5.88;5.00;;;;;;;10.58;100.00;92638.69;2090837;28;20647;-84
2023/06/13 00:30:51;;;;;;;5.88;5.18;;;;;;;10.59;100.00;92631.41;2089026;28;20040;-83
2023/06/13 00:31:59;;;;;;;6.95;5.00;;;;;;;10.51;100.00;92641.56;2082723;28;20063;-83
2023/06/13 00:33:07;;;;;;;6.43;5.05;;;;;;;10.49;100.00;92629.78;2090551;28;20079;-83
2023/06/13 00:34:17;;;;;;;7.10;4.60;;;;;;;10.40;100.00;92640.34;2082909;28;20116;-82
2023/06/13 00:35:25;;;;;;;7.50;5.40;;;;;;;10.46;100.00;92636.75;2079004;28;20511;-81
2023/06/13 00:36:37;;;;;;;8.07;5.32;;;;;;;10.37;100.00;92633.22;2075532;28;20044;-82
2023/06/13 00:37:50;;;;;;;5.85;5.35;;;;;;;10.46;100.00;92631.41;2077273;28;20032;-82
2023/06/13 00:39:00;;;;;;;5.95;5.00;;;;;;;10.36;100.00;92629.78;2085564;28;20085;-81
2023/06/13 00:40:08;;;;;;;7.25;5.22;;;;;;;10.41;100.00;92625.84;2091750;28;20025;-83
2023/06/13 00:41:15;;;;;;;7.43;5.53;;;;;;;10.31;100.00;92630.28;2086331;28;20592;-83
2023/06/13 00:42:22;;;;;;;6.03;5.15;;;;;;;10.30;100.00;92634.16;2096527;28;20056;-81
2023/06/13 00:43:28;;;;;;;5.90;5.18;;;;;;;10.24;100.00;92627.81;2091941;28;20163;-81
2023/06/13 00:44:31;;;;;;;5.55;5.05;;;;;;;10.22;100.00;92627.47;2083924;28;20026;-83
2023/06/13 00:45:38;;;;;;;5.18;4.60;;;;;;;10.12;100.00;92636.53;2098876;28;20048;-81
2023/06/13 00:46:47;;;;;;;6.03;4.90;;;;;;;10.10;100.00;92631.63;2100151;28;20564;-82
2023/06/13 00:47:59;;;;;;;6.70;4.80;;;;;;;10.05;100.00;92624.13;2112543;28;20411;-82
2023/06/13 00:49:06;;;;;;;7.40;5.13;;;;;;;10.04;100.00;92628.72;2085922;28;20048;-82
2023/06/13 00:50:15;;;;;;;6.55;5.32;;;;;;;10.00;100.00;92622.72;2083078;28;20571;-81
2023/06/13 00:51:24;;;;;;;6.53;5.13;;;;;;;10.01;100.00;92626.19;2097962;28;20070;-81
2023/06/13 00:52:27;;;;;;;6.68;4.65;;;;;;;9.96;100.00;92626.66;2104917;28;20460;-81
2023/06/13 00:53:36;;;;;;;6.05;5.22;;;;;;;9.95;100.00;92628.59;2103589;28;20028;-82
2023/06/13 00:54:41;;;;;;;5.95;5.40;;;;;;;10.17;100.00;92620.75;2100438;28;20131;-82
2023/06/13 00:55:53;;;;;;;8.00;5.28;;;;;;;9.94;100.00;92624.44;2107086;28;20020;-81
2023/06/13 00:57:02;;;;;;;6.35;5.28;;;;;;;10.00;100.00;92616.66;2107171;28;20028;-81
2023/06/13 00:58:11;;;;;;;5.63;5.00;;;;;;;9.88;100.00;92622.69;2099428;28;20028;-83
2023/06/13 00:59:17;;;;;;;5.28;4.78;;;;;;;9.89;100.00;92621.53;2090807;28;20020;-83
2023/06/13 01:00:26;;;;;;;6.28;5.22;;;;;;;9.82;100.00;92623.22;2091401;28;20028;-81
2023/06/13 01:01:33;;;;;;;6.10;5.50;;;;;;;9.87;100.00;92626.53;2090754;28;20021;-83
2023/06/13 01:02:40;;;;;;;6.88;4.85;;;;;;;9.81;100.00;92616.38;2083378;28;20036;-83
2023/06/13 01:03:46;;;;;;;7.70;5.43;;;;;;;9.89;100.00;92611.59;2084426;28;20490;-83
2023/06/13 01:04:57;;;;;;;7.68;5.50;;;;;;;9.79;100.00;92616.06;2091366;28;20051;-81
2023/06/13 01:06:05;;;;;;;7.07;5.43;;;;;;;9.71;100.00;92617.44;2095402;28;20028;-82
2023/06/13 01:07:14;;;;;;;10.55;5.93;;;;;;;9.77;100.00;92613.06;2083509;28;20018;-81
2023/06/13 01:08:21;;;;;;;8.45;5.47;;;;;;;9.68;100.00;92612.19;2084646;28;20506;-84
2023/06/13 01:09:28;;;;;;;12.57;5.45;;;;;;;9.61;100.00;92613.09;2091748;28;20028;-81
2023/06/13 01:10:40;;;;;;;7.22;5.25;;;;;;;9.59;100.00;92610.13;2093282;28;20107;-83
2023/06/13 01:12:11;;;;;;;6.07;5.28;;;;;;;9.66;100.00;92609.94;2083076;28;20103;-84
2023/06/13 01:13:56;;;;;;;6.03;4.75;;;;;;;9.54;100.00;92599.97;2090504;28;20035;-81
2023/06/13 01:15:14;;;;;;;6.90;4.90;;;;;;;9.40;100.00;92601.09;2087989;28;20040;-81
2023/06/13 01:16:33;;;;;;;6.57;4.95;;;;;;;9.33;100.00;92604.66;2087165;28;20024;-81
2023/06/13 01:17:43;;;;;;;6.33;5.00;;;;;;;9.37;100.00;92601.16;2090739;28;20118;-83
2023/06/13 01:18:57;;;;;;;7.07;5.15;;;;;;;9.39;100.00;92599.56;2097570;28;20443;-83
2023/06/13 01:20:10;;;;;;;5.43;4.93;;;;;;;9.28;100.00;92605.19;2097662;28;20126;-83
2023/06/13 01:21:19;;;;;;;6.47;4.80;;;;;;;9.35;100.00;92596.25;2093777;28;20028;-81
2023/06/13 01:22:52;;;;;;;6.72;5.00;;;;;;;9.25;100.00;92602.59;2093937;28;20025;-81
2023/06/13 01:24:15;;;;;;;5.57;5.03;;;;;;;9.26;100.00;92596.09;2102471;28;20028;-82
2023/06/13 01:25:47;;;;;;;6.15;5.05;;;;;;;9.11;100.00;92602.97;2098437;28;20642;-82
2023/06/13 01:26:57;;;;;;;5.35;4.65;;;;;;;9.22;100.00;92603.44;2098754;28;20618;-83
2023/06/13 01:28:08;;;;;;;6.47;5.20;;;;;;;9.17;100.00;92599.34;2100207;28;20059;-81
2023/06/13 01:29:18;;;;;;;7.10;5.05;;;;;;;9.13;100.00;92600.59;2099986;28;20104;-82
2023/06/13 01:30:26;;;;;;;5.85;4.82;;;;;;;9.11;100.00;92605.63;2091460;28;20028;-81
2023/06/13 01:31:38;;;;;;;5.50;4.95;;;;;;;8.97;100.00;92602.13;2084288;28;20500;-81
2023/06/13 01:32:47;;;;;;;5.50;4.88;;;;;;;9.05;100.00;92606.13;2083415;28;20049;-82
2023/06/13 01:33:58;;;;;;;5.00;4.60;;;;;;;9.00;100.00;92603.97;2084023;28;20021;-81
2023/06/13 01:35:00;;;;;;;6.07;5.05;;;;;;;9.06;100.00;92606.88;2092332;28;20041;-84
2023/06/13 01:36:02;;;;;;;6.95;5.10;;;;;;;8.98;100.00;92603.63;2106003;28;20030;-83
2023/06/13 01:37:03;;;;;;;7.05;4.85;;;;;;;9.05;100.00;92605.38;2097866;28;20025;-81
2023/06/13 01:38:09;;;;;;;6.70;5.32;;;;;;;8.98;100.00;92608.22;2083143;28;20024;-81
2023/06/13 01:39:17;;;;;;;7.45;5.57;;;;;;;8.96;100.00;92602.56;2092542;28;20048;-81
2023/06/13 01:40:25;;;;;;;6.55;5.10;;;;;;;8.90;100.00;92607.63;2107875;28;20024;-80
2023/06/13 01:41:30;;;;;;;5.90;5.30;;;;;;;9.00;100.00;92603.97;2102218;28;20028;-83
2023/06/13 01:42:36;;;;;;;5.18;4.68;;;;;;;8.92;100.00;92613.31;2091551;28;20047;-81
2023/06/13 01:43:41;;;;;;;6.22;5.25;;;;;;;8.91;100.00;92603.03;2092557;28;20032;-83
2023/06/13 01:44:49;;;;;;;6.22;5.32;;;;;;;8.84;100.00;92606.63;2097088;28;20034;-80
2023/06/13 01:46:06;;;;;;;7.85;5.60;;;;;;;8.75;100.00;92609.88;2087868;28;20040;-83
2023/06/13 01:47:37;;;;;;;5.32;4.80;;;;;;;8.73;100.00;92598.13;2091570;28;20029;-82
2023/06/13 01:48:50;;;;;;;6.45;4.82;;;;;;;8.71;100.00;92603.88;2096968;28;20039;-83
2023/06/13 01:50:23;;;;;;;9.30;5.05;;;;;;;8.79;100.00;92605.22;2086703;28;20052;-83
2023/06/13 01:51:40;;;;;;;5.20;4.70;;;;;;;8.71;100.00;92600.47;2089601;28;20104;-82
2023/06/13 01:53:07;;;;;;;5.38;4.88;;;;;;;8.71;100.00;92597.81;2090472;28;20025;-81
2023/06/13 01:54:17;;;;;;;5.40;4.90;;;;;;;8.67;100.00;92597.13;2095508;28;20057;-83
2023/06/13 01:55:38;;;;;;;6.50;5.05;;;;;;;8.71;100.00;92598.56;2090655;28;20032;-82
2023/06/13 01:56:59;;;;;;;7.90;5.75;;;;;;;8.65;100.00;92594.13;2095676;28;20028;-84
2023/06/13 01:58:23;;;;;;;6.45;5.00;;;;;;;8.61;100.00;92590.81;2102019;28;20024;-82
2023/06/13 01:59:31;;;;;;;6.05;4.72;;;;;;;8.66;100.00;92592.97;2110435;28;20070;-82
2023/06/13 02:00:40;;;;;;;6.25;4.93;;;;;;;8.68;100.00;92587.97;2101191;28;20036;-82
2023/06/13 02:01:51;;;;;;;8.17;5.13;;;;;;;8.62;100.00;92592.31;2092180;28;20465;-83
2023/06/13 02:03:03;;;;;;;7.32;5.25;;;;;;;8.57;100.00;92588.97;2085164;28;20444;-81
2023/06/13 02:04:12;;;;;;;8.43;5.03;;;;;;;8.60;100.00;92590.03;2091782;28;20052;-82
2023/06/13 02:05:23;;;;;;;9.25;4.85;;;;;;;8.51;100.00;92581.88;2106499;28;20050;-82
2023/06/13 02:06:36;;;;;;;9.90;5.15;;;;;;;8.58;100.00;92589.72;2090358;28;20405;-83
2023/06/13 02:07:46;;;;;;;7.82;4.85;;;;;;;8.52;100.00;92586.81;2100834;28;20044;-83
2023/06/13 02:08:53;;;;;;;9.98;5.18;;;;;;;8.50;100.00;92585.72;2098968;28;20032;-80
2023/06/13 02:10:04;;;;;;;7.13;5.20;;;;;;;8.46;100.00;92582.38;2082142;28;20493;-81
2023/06/13 02:11:13;;;;;;;8.65;5.43;;;;;;;8.52;100.00;92586.81;2099324;28;20020;-81
2023/06/13 02:12:21;;;;;;;6.78;5.13;;;;;;;8.55;100.00;92580.63;2105848;28;20160;-81
2023/06/13 02:13:28;;;;;;;6.45;5.40;;;;;;;8.60;100.00;92575.97;2090473;28;20059;-84
2023/06/13 02:14:39;;;;;;;5.78;5.28;;;;;;;8.51;100.00;92579.22;2087301;28;20077;-80
2023/06/13 02:15:48;;;;;;;7.75;5.53;;;;;;;8.40;100.00;92576.81;2100299;28;20025;-81
2023/06/13 02:16:55;;;;;;;9.80;5.40;;;;;;;8.44;100.00;92580.16;2090684;28;20025;-82
2023/06/13 02:18:03;;;;;;;6.75;5.07;;;;;;;8.40;100.00;92578.72;2098679;28;20488;-83
2023/06/13 02:19:13;;;;;;;7.43;5.40;;;;;;;8.51;100.00;92577.31;2106324;28;20028;-81
2023/06/13 02:21:31;;;;;;;;;;;;;;;8.51;100.00;92577.31;2136058;27;20170;-70
2023/06/13 02:22:41;;;;;;;6.30;5.55;;;;;;;8.49;100.00;92578.91;2113913;28;20405;-72
2023/06/13 02:23:49;;;;;;;5.03;4.53;;;;;;;8.46;100.00;92577.81;2111978;27;20573;-72
2023/06/13 02:24:59;;;;;;;5.80;5.22;;;;;;;8.39;100.00;92583.31;2127632;27;20039;-73
2023/06/13 02:26:08;;;;;;;5.68;5.18;;;;;;;8.42;100.00;92587.78;2125309;27;20035;-72
2023/06/13 02:27:17;;;;;;;8.23;5.55;;;;;;;8.36;100.00;92584.09;2120836;27;20024;-72
2023/06/13 02:28:25;;;;;;;8.35;5.50;;;;;;;8.36;100.00;92586.75;2119036;27;20559;-70
2023/06/13 02:29:33;;;;;;;6.18;5.13;;;;;;;8.35;100.00;92587.94;2124089;27;20538;-69
2023/06/13 02:30:40;;;;;;;5.93;5.30;;;;;;;8.30;100.00;92591.09;2128901;27;20027;-72
2023/06/13 02:31:48;;;;;;;6.55;5.65;;;;;;;8.19;100.00;92580.66;2128431;27;20481;-73
2023/06/13 02:32:58;;;;;;;7.20;5.18;;;;;;;8.19;100.00;92585.97;2127692;27;20027;-73
2023/06/13 02:34:07;;;;;;;6.45;5.70;;;;;;;8.14;100.00;92578.47;2125074;27;20035;-71
2023/06/13 02:35:18;;;;;;;6.38;5.68;;;;;;;8.18;100.00;92583.72;2125969;27;20396;-71
2023/06/13 02:36:22;;;;;;;6.00;5.40;;;;;;;8.29;100.00;92587.66;2128484;27;20031;-70
2023/06/13 02:37:28;;;;;;;7.10;5.53;;;;;;;8.22;100.00;92581.75;2123789;27;20046;-71
2023/06/13 02:38:41;;;;;;;8.13;5.43;;;;;;;8.27;100.00;92581.25;2119364;27;20138;-73
2023/06/13 02:39:49;;;;;;;5.80;5.20;;;;;;;8.18;100.00;92579.16;2127718;27;20048;-71
2023/06/13 02:40:59;;;;;;;6.07;5.47;;;;;;;8.20;100.00;92584.81;2128444;27;20669;-74
2023/06/13 02:42:05;;;;;;;;;;;;;;;8.19;100.00;92579.91;2126267;27;20033;-71
2023/06/13 02:43:14;;;;;;;5.72;5.22;;;;;;;8.15;100.00;92577.31;2127574;27;20758;-71
2023/06/13 02:44:22;;;;;;;6.32;5.45;;;;;;;8.21;100.00;92583.66;2127540;27;20041;-71
2023/06/13 02:45:30;;;;;;;5.55;5.05;;;;;;;8.11;100.00;92583.88;2124515;27;20023;-71
2023/06/13 02:46:39;;;;;;;6.40;5.22;;;;;;;8.15;100.00;92584.56;2128121;27;20030;-71
2023/06/13 02:47:50;;;;;;;6.60;5.40;;;;;;;8.00;100.00;92579.53;2124202;27;20043;-70
2023/06/13 02:49:02;;;;;;;6.85;4.97;;;;;;;7.94;100.00;92583.81;2127988;27;20687;-70
2023/06/13 02:50:09;;;;;;;6.28;5.00;;;;;;;7.99;100.00;92588.69;2125824;27;20035;-70
2023/06/13 02:51:18;;;;;;;5.97;5.28;;;;;;;7.98;100.00;92581.09;2123873;27;20059;-70
2023/06/13 02:52:23;;;;;;;7.28;5.43;;;;;;;8.08;100.00;92583.56;2128292;27;20031;-70
2023/06/13 02:53:32;;;;;;;6.72;5.60;;;;;;;8.01;100.00;92583.69;2126817;27;20413;-69
2023/06/13 02:54:38;;;;;;;6.25;5.60;;;;;;;8.02;100.00;92585.19;2127472;27;20039;-70
2023/06/13 02:55:46;;;;;;;10.85;5.97;;;;;;;7.93;100.00;92582.34;2128210;27;20100;-70
2023/06/13 02:56:52;;;;;;;9.35;5.97;;;;;;;7.99;100.00;92582.59;2128039;27;20026;-70
2023/06/13 02:58:18;;;;;;;7.38;5.75;;;;;;;7.90;100.00;92575.19;2128153;27;20063;-70
2023/06/13 02:59:37;;;;;;;6.05;5.25;;;;;;;7.94;100.00;92581.16;2122009;27;20027;-71
2023/06/13 03:00:41;;;;;;;5.60;5.05;;;;;;;7.99;100.00;92580.69;2128558;27;20138;-71
2023/06/13 03:01:49;;;;;;;7.97;5.93;;;;;;;7.93;100.00;92576.25;2127492;27;20603;-70
2023/06/13 03:02:58;;;;;;;5.75;5.13;;;;;;;7.97;100.00;92585.66;2119784;27;20034;-71
2023/06/13 03:04:02;;;;;;;5.95;5.30;;;;;;;7.92;100.00;92578.19;2124612;27;20019;-71
2023/06/13 03:05:15;;;;;;;14.15;5.68;;;;;;;7.88;100.00;92582.81;2128178;27;20041;-70
2023/06/13 03:06:20;;;;;;;7.50;5.47;;;;;;;7.89;100.00;92576.31;2124552;27;20029;-70
2023/06/13 03:07:31;;;;;;;7.90;5.57;;;;;;;7.87;100.00;92581.31;2126739;27;20042;-70
2023/06/13 03:08:52;;;;;;;6.50;5.63;;;;;;;7.97;100.00;92584.94;2125664;27;20026;-70
2023/06/13 03:10:03;;;;;;;5.88;5.18;;;;;;;7.89;100.00;92575.59;2124401;27;20035;-70
2023/06/13 03:11:13;;;;;;;6.00;5.35;;;;;;;7.94;100.00;92583.81;2127767;27;20113;-70
2023/06/13 03:12:17;;;;;;;6.55;5.13;;;;;;;7.89;100.00;92586.97;2127383;27;20023;-70
2023/06/13 03:13:27;;;;;;;15.35;5.90;;;;;;;7.82;100.00;92582.56;2127338;27;20627;-71
2023/06/13 03:14:34;;;;;;;9.88;5.55;;;;;;;7.89;100.00;92589.63;2119608;27;20084;-70
2023/06/13 03:15:47;;;;;;;6.93;5.60;;;;;;;7.82;100.00;92587.13;2117339;28;20031;-70
2023/06/13 03:16:56;;;;;;;6.72;5.85;;;;;;;7.74;100.00;92594.50;2126907;27;20103;-70
2023/06/13 03:18:01;;;;;;;7.65;5.50;;;;;;;7.74;100.00;92593.75;2122249;27;20087;-72
2023/06/13 03:19:09;;;;;;;6.38;5.07;;;;;;;7.67;100.00;92599.19;2127725;27;20035;-73
2023/06/13 03:20:17;;;;;;;8.48;5.68;;;;;;;7.68;100.00;92592.72;2127322;27;20082;-71
2023/06/13 03:21:23;;;;;;;8.13;5.68;;;;;;;7.70;100.00;92596.47;2127428;27;20042;-70
2023/06/13 03:22:30;;;;;;;6.60;5.65;;;;;;;7.70;100.00;92595.72;2126276;27;20469;-71
2023/06/13 03:23:39;;;;;;;8.63;5.82;;;;;;;7.71;100.00;92595.31;2127918;27;20027;-71
2023/06/13 03:24:48;;;;;;;7.78;6.05;;;;;;;7.67;100.00;92599.19;2118731;28;20133;-71
2023/06/13 03:25:55;;;;;;;6.28;5.50;;;;;;;7.70;100.00;92595.72;2120663;27;20377;-71
2023/06/13 03:27:04;;;;;;;7.55;5.50;;;;;;;7.67;100.00;92594.63;2122314;27;20031;-69
2023/06/13 03:28:12;;;;;;;6.00;5.38;;;;;;;7.67;100.00;92594.63;2127648;27;20042;-71
2023/06/13 03:29:22;;;;;;;6.22;5.43;;;;;;;7.69;100.00;92594.22;2126561;27;20124;-70
2023/06/13 03:30:32;;;;;;;7.90;5.68;;;;;;;7.63;100.00;92598.50;2127101;27;20085;-71
2023/06/13 03:31:36;;;;;;;8.23;5.20;;;;;;;7.63;100.00;92593.19;2127691;27;20031;-71
2023/06/13 03:32:42;;;;;;;9.15;5.47;;;;;;;7.64;100.00;92594.69;2122909;27;20039;-71
2023/06/13 03:33:46;;;;;;;8.88;6.05;;;;;;;7.64;100.00;92592.03;2113353;27;20045;-70
2023/06/13 03:34:53;;;;;;;8.07;6.30;;;;;;;7.63;100.00;92590.53;2121384;27;20131;-71
2023/06/13 03:36:00;;;;;;;7.13;5.80;;;;;;;7.60;100.00;92604.66;2119337;27;20027;-70
2023/06/13 03:37:11;;;;;;;9.38;7.10;;;;;;;7.54;100.00;92597.13;2121496;27;20023;-70
2023/06/13 03:38:16;;;;;;;11.60;7.80;;;;;;;7.56;100.00;92600.16;2122204;27;20767;-71
2023/06/13 03:39:21;;;;;;;12.40;7.10;;;;;;;7.56;100.00;92597.50;2122044;27;20031;-70
2023/06/13 03:40:26;;;;;;;12.80;6.43;;;;;;;7.51;100.00;92600.63;2113891;27;20062;-71
2023/06/13 03:41:32;;;;;;;10.10;6.55;;;;;;;7.49;100.00;92600.28;2116905;27;20473;-71
2023/06/13 03:42:40;;;;;;;9.02;6.25;;;;;;;7.46;100.00;92603.00;2122021;27;20110;-70
2023/06/13 03:43:46;;;;;;;9.02;5.72;;;;;;;7.51;100.00;92599.88;2122193;27;20486;-71
2023/06/13 03:44:54;;;;;;;8.38;6.57;;;;;;;7.47;100.00;92605.28;2122378;27;20304;-71
2023/06/13 03:46:03;;;;;;;9.40;6.68;;;;;;;7.41;100.00;92600.81;2119073;27;20427;-71
2023/06/13 03:47:12;;;;;;;6.60;5.97;;;;;;;7.39;100.00;92600.50;2113108;28;20122;-70
2023/06/13 03:48:20;;;;;;;10.00;6.15;;;;;;;7.36;100.00;92606.63;2114252;27;20043;-70
2023/06/13 03:49:28;;;;;;;12.98;6.35;;;;;;;7.42;100.00;92608.41;2113356;28;20027;-70
2023/06/13 03:50:35;;;;;;;9.55;5.47;;;;;;;7.47;100.00;92599.94;2114071;27;20027;-72
2023/06/13 03:51:39;;;;;;;12.27;6.20;;;;;;;7.38;100.00;92602.41;2121371;27;20376;-70
2023/06/13 03:52:49;;;;;;;9.75;5.70;;;;;;;7.45;100.00;92609.47;2117011;27;20058;-71
2023/06/13 03:53:54;;;;;;;16.23;6.43;;;;;;;7.40;100.00;92605.38;2121798;27;20110;-70
2023/06/13 03:55:02;;;;;;;11.50;6.28;;;;;;;7.31;100.00;92602.50;2117908;27;20034;-70
2023/06/13 03:56:12;;;;;;;8.23;6.07;;;;;;;7.36;100.00;92607.34;2122449;27;20069;-71
2023/06/13 03:57:16;;;;;;;8.75;6.38;;;;;;;7.30;100.00;92606.34;2121865;27;20046;-71
2023/06/13 03:58:26;;;;;;;7.80;5.50;;;;;;;7.37;100.00;92602.78;2121707;27;20035;-71
2023/06/13 03:59:32;;;;;;;8.02;6.30;;;;;;;7.45;100.00;92590.88;2118311;27;20483;-70
2023/06/13 04:00:39;;;;;;;9.77;6.60;;;;;;;7.53;100.00;92597.56;2121592;27;20046;-71
2023/06/13 04:01:49;;;;;;;10.43;5.88;;;;;;;7.51;100.00;92600.63;2112410;28;20123;-71
2023/06/13 04:02:55;;;;;;;7.05;5.68;;;;;;;7.56;100.00;92594.09;2097735;28;20067;-71
2023/06/13 04:04:01;;;;;;;7.32;5.65;;;;;;;7.50;100.00;92596.47;2105823;28;20024;-71
2023/06/13 04:05:07;;;;;;;11.55;5.75;;;;;;;7.51;100.00;92590.00;2112571;28;20035;-71
2023/06/13 04:06:12;;;;;;;7.90;5.72;;;;;;;7.65;100.00;92594.28;2111433;28;20027;-71
2023/06/13 04:07:21;;;;;;;6.93;5.97;;;;;;;7.64;100.00;92600.00;2103229;28;20039;-70
2023/06/13 04:08:32;;;;;;;7.88;6.35;;;;;;;7.62;100.00;92597.75;2105229;28;20425;-70
2023/06/13 04:09:37;;;;;;;6.70;5.70;;;;;;;7.72;100.00;92601.38;2114933;27;20402;-70
2023/06/13 04:10:44;;;;;;;7.32;5.70;;;;;;;7.80;100.00;92587.53;2121078;27;20099;-71
2023/06/13 04:11:49;;;;;;;7.47;5.90;;;;;;;7.75;100.00;92603.97;2113387;27;20550;-70
2023/06/13 04:12:59;;;;;;;6.90;6.03;;;;;;;7.79;100.00;92602.00;2122092;27;20655;-72
2023/06/13 04:14:05;;;;;;;6.50;5.75;;;;;;;7.73;100.00;92602.91;2118512;27;20084;-71
2023/06/13 04:15:11;;;;;;;8.55;5.57;;;;;;;7.69;100.00;92607.53;2115965;27;20209;-71
2023/06/13 04:16:15;;;;;;;8.90;6.35;;;;;;;7.83;100.00;92607.25;2117150;27;20099;-70
2023/06/13 04:17:24;;;;;;;5.82;5.22;;;;;;;7.80;100.00;92608.81;2121679;27;20499;-73
2023/06/13 04:18:29;;;;;;;9.43;5.68;;;;;;;7.81;100.00;92604.25;2117187;27;20095;-73
2023/06/13 04:19:57;;;;;;;10.20;5.93;;;;;;;7.88;100.00;92612.09;2121835;27;20031;-75
2023/06/13 04:21:08;;;;;;;7.20;5.60;;;;;;;7.94;100.00;92607.78;2118141;27;20043;-72
2023/06/13 04:22:31;;;;;;;7.22;5.85;;;;;;;7.97;100.00;92616.84;2121358;27;20556;-74
2023/06/13 04:23:41;;;;;;;8.23;6.18;;;;;;;8.00;100.00;92611.47;2117321;27;20034;-74
2023/06/13 04:24:46;;;;;;;10.77;6.38;;;;;;;8.06;100.00;92612.47;2102394;28;20043;-72
2023/06/13 04:25:57;;;;;;;6.55;5.63;;;;;;;8.13;100.00;92616.91;2103427;27;20032;-71
2023/06/13 04:27:04;;;;;;;8.05;5.43;;;;;;;8.17;100.00;92614.94;2116897;27;20544;-73
2023/06/13 04:28:08;;;;;;;7.50;5.70;;;;;;;8.11;100.00;92608.56;2113348;27;20027;-72
2023/06/13 04:29:17;;;;;;;8.07;6.22;;;;;;;8.16;100.00;92613.41;2117280;27;20126;-74
2023/06/13 04:30:36;;;;;;;11.38;6.25;;;;;;;8.23;100.00;92609.88;2109200;28;20036;-73
2023/06/13 04:31:42;;;;;;;10.65;5.85;;;;;;;8.28;100.00;92615.44;2107667;27;20390;-72
2023/06/13 04:32:50;;;;;;;8.10;5.88;;;;;;;8.33;100.00;92616.88;2113509;27;20035;-72
2023/06/13 04:33:59;;;;;;;7.32;5.40;;;;;;;8.51;100.00;92609.25;2104764;28;20023;-71
2023/06/13 04:35:17;;;;;;;8.25;6.28;;;;;;;8.54;100.00;92611.09;2092938;28;20039;-76
2023/06/13 04:36:28;;;;;;;6.90;5.80;;;;;;;8.61;100.00;92615.53;2103319;28;20047;-73
2023/06/13 04:37:40;;;;;;;7.82;5.88;;;;;;;8.62;100.00;92616.28;2109243;27;20139;-71
2023/06/13 04:38:46;;;;;;;9.70;5.90;;;;;;;8.62;100.00;92621.63;2104139;28;20175;-72
2023/06/13 04:39:47;;;;;;;11.25;6.38;;;;;;;8.66;100.00;92620.38;2103384;27;20032;-73
2023/06/13 04:40:49;;;;;;;8.20;5.80;;;;;;;8.79;100.00;92625.78;2104979;28;20625;-72
2023/06/13 04:41:55;;;;;;;8.40;5.72;;;;;;;8.86;100.00;92625.63;2109108;28;20059;-73
2023/06/13 04:43:05;;;;;;;9.43;6.57;;;;;;;8.90;100.00;92628.94;2089487;28;20029;-72
2023/06/13 04:44:09;;;;;;;10.40;5.75;;;;;;;8.90;100.00;92631.63;2095251;28;20034;-71
2023/06/13 04:45:10;;;;;;;7.90;5.80;;;;;;;9.20;100.00;92624.44;2090590;28;20039;-72
2023/06/13 04:46:17;;;;;;;8.98;5.75;;;;;;;9.17;100.00;92625.28;2101101;28;20028;-72
2023/06/13 04:47:33;;;;;;;8.43;5.80;;;;;;;9.19;100.00;92625.63;2091323;28;20024;-72
2023/06/13 04:48:40;;;;;;;7.75;5.63;;;;;;;9.25;100.00;92629.25;2103968;27;20146;-72
2023/06/13 04:49:45;;;;;;;11.13;6.22;;;;;;;9.32;100.00;92626.44;2100473;28;20051;-72
2023/06/13 04:50:48;;;;;;;8.27;5.80;;;;;;;9.33;100.00;92626.00;2092996;28;20105;-72
2023/06/13 04:51:53;;;;;;;7.45;5.55;;;;;;;9.34;100.00;92618.75;2091583;28;20083;-71
2023/06/13 04:52:58;;;;;;;9.40;6.10;;;;;;;9.42;100.00;92630.00;2089892;28;20063;-73
2023/06/13 04:54:08;;;;;;;6.95;5.72;;;;;;;9.45;100.00;92629.91;2095235;27;20560;-73
2023/06/13 04:55:15;;;;;;;9.52;6.07;;;;;;;9.51;100.00;92630.88;2110620;27;20031;-72
2023/06/13 04:56:22;;;;;;;7.85;5.70;;;;;;;9.64;100.00;92630.19;2101478;28;20136;-72
2023/06/13 04:57:31;;;;;;;10.20;5.85;;;;;;;9.97;100.00;92634.28;2090513;28;20029;-73
2023/06/13 04:58:40;;;;;;;10.55;5.53;;;;;;;10.00;100.00;92632.66;2092346;28;20047;-73
2023/06/13 04:59:42;;;;;;;9.65;5.43;;;;;;;9.99;100.00;92631.91;2097609;28;20062;-72
2023/06/13 05:00:58;;;;;;;7.25;5.47;;;;;;;10.01;100.00;92626.19;2091645;28;20051;-73
2023/06/13 05:02:03;;;;;;;10.23;6.13;;;;;;;9.99;100.00;92631.16;2091907;28;20048;-72
2023/06/13 05:03:16;;;;;;;8.15;5.90;;;;;;;9.92;100.00;92634.78;2098064;27;20762;-72
2023/06/13 05:04:20;;;;;;;8.65;6.10;;;;;;;10.02;100.00;92627.66;2103881;28;20086;-74
2023/06/13 05:05:28;;;;;;;7.65;5.88;;;;;;;10.07;100.00;92627.88;2096064;28;20039;-72
2023/06/13 05:06:37;;;;;;;12.32;5.97;;;;;;;10.27;100.00;92621.63;2091361;28;20049;-73
2023/06/13 05:07:47;;;;;;;10.70;4.90;;;;;;;10.24;100.00;92625.91;2089210;28;20115;-72
2023/06/13 05:08:57;;;;;;;7.90;6.07;;;;;;;10.40;100.00;92616.31;2096243;28;20029;-74
2023/06/13 05:10:07;;;;;;;14.65;6.32;;;;;;;10.44;100.00;92628.38;2103527;28;20040;-75
2023/06/13 05:11:25;;;;;;;9.57;5.93;;;;;;;10.48;100.00;92621.03;2104415;27;20536;-75
2023/06/13 05:12:31;;;;;;;10.38;5.75;;;;;;;10.51;100.00;92617.50;2108813;27;20042;-73
2023/06/13 05:13:55;;;;;;;8.88;5.80;;;;;;;10.63;100.00;92623.28;2118725;27;20050;-76
2023/06/13 05:15:11;;;;;;;8.25;5.88;;;;;;;10.56;100.00;92611.63;2114192;27;20046;-73
2023/06/13 05:21:47;;;;;;;11.50;5.67;;;;;;;10.87;100.00;92613.00;2116530;27;20082;-73
2023/06/13 05:24:10;;;;;;;10.95;5.38;;;;;;;10.82;100.00;92615.03;2105945;27;21112;-72
2023/06/13 05:26:11;;;;;;;9.70;6.05;;;;;;;11.03;100.00;92612.88;2099338;28;20935;-73
2023/06/13 05:27:48;;;;;;;8.35;5.93;;;;;;;11.06;100.00;92612.00;2117470;27;20035;-72
2023/06/13 05:29:51;;;;;;;7.53;6.15;;;;;;;11.31;100.00;92605.88;2107392;27;20478;-72
2023/06/13 05:31:30;;;;;;;9.00;5.93;;;;;;;11.44;100.00;92606.56;2095351;28;20130;-73
2023/06/13 05:34:06;;;;;;;7.93;5.72;;;;;;;11.49;100.00;92605.28;2081554;28;20033;-73
2023/06/13 05:35:47;;;;;;;9.30;6.40;;;;;;;11.42;100.00;92605.53;2113458;27;20035;-74
2023/06/13 05:43:19;;;;;;;;;;;;;;;;;;;;;
2023/06/13 05:47:52;;;;;;;;;;;;;;;;;;;;;
2023/06/13 06:44:15;;;;;;;23.90;6.47;;;;;;;13.46;92.87;92598.81;2598505;22;20022;-82